Fort Macon Coast Guard Base, North Carolina
Current Conditions -  °F | °C
As of 3:58 AM on Tuesday 21 Oct 2014 (Local Time) from KMRH Reporting Station
Broken Clouds Broken Clouds  
Wind Chill: 64°   Ceiling: 7000
Heat Index: 64°   Visibility: 10mi
Dew Point: 63°   Wind: 5mph
Humidity: 96%   Direction: 330°NNW
Pressure: 29.93"   Gusts: NA
Location:  34.6984°N, 76.7775°W
Report Text: KMRH 210758Z AUTO 33004KT 10SM FEW022 SCT028 BKN070 18/17 A2993 RMK AO2 SLP135 T01780172 TSNO
Loading
Personal Weather Stations






























Interactive Weather Map
Tropical Storm Tracking
New forecast layout! Learn more

10-Day Weather Forecast

Advertisements
Track Severe Weather on mobile